createdAt,value
2018-10-06T00:00:25.109Z,8.60
2018-10-06T00:02:53.818Z,8.60
2018-10-06T00:05:22.375Z,8.60
2018-10-06T00:07:51.382Z,8.60
2018-10-06T00:10:19.944Z,8.60
2018-10-06T00:12:48.690Z,8.60
2018-10-06T00:15:17.352Z,8.50
2018-10-06T00:17:45.846Z,8.50
2018-10-06T00:20:14.344Z,8.50
2018-10-06T00:22:42.815Z,8.50
2018-10-06T00:25:11.279Z,8.50
2018-10-06T00:27:39.809Z,8.50
2018-10-06T00:30:08.341Z,8.40
2018-10-06T00:32:36.812Z,8.20
2018-10-06T00:35:05.479Z,8.10
2018-10-06T00:37:34.032Z,8.00
2018-10-06T00:40:02.707Z,7.90
2018-10-06T00:42:31.204Z,7.80
2018-10-06T00:45:00.021Z,7.90
2018-10-06T00:47:28.690Z,8.00
2018-10-06T00:49:57.301Z,8.00
2018-10-06T00:52:26.212Z,8.00
2018-10-06T00:54:55.016Z,7.90
2018-10-06T00:57:23.495Z,8.00
2018-10-06T00:59:51.952Z,8.00
2018-10-06T01:02:20.430Z,7.90
2018-10-06T01:04:48.926Z,7.90
2018-10-06T01:07:17.470Z,7.80
2018-10-06T01:09:46.001Z,7.80
2018-10-06T01:12:14.502Z,7.80
2018-10-06T01:14:43.069Z,7.70
2018-10-06T01:17:11.617Z,7.70
2018-10-06T01:19:40.212Z,7.70
2018-10-06T01:22:08.773Z,7.60
2018-10-06T01:24:37.299Z,7.50
2018-10-06T01:27:05.850Z,7.50
2018-10-06T01:29:35.168Z,7.50
2018-10-06T01:32:04.950Z,7.50
2018-10-06T01:34:33.910Z,7.50
2018-10-06T01:37:02.403Z,7.50
2018-10-06T01:39:31.301Z,7.60
2018-10-06T01:41:59.956Z,7.60
2018-10-06T01:44:28.406Z,7.60
2018-10-06T01:46:56.921Z,7.60
2018-10-06T01:49:25.452Z,7.60
2018-10-06T01:51:53.871Z,7.70
2018-10-06T01:54:22.393Z,7.70
2018-10-06T01:56:50.977Z,7.70
2018-10-06T01:59:19.487Z,7.70
2018-10-06T02:01:47.966Z,7.70
2018-10-06T02:04:16.527Z,7.60
2018-10-06T02:06:44.998Z,7.70
2018-10-06T02:09:13.589Z,7.70
2018-10-06T02:11:42.036Z,7.60
2018-10-06T02:14:10.506Z,7.50
2018-10-06T02:16:39.036Z,7.50
2018-10-06T02:19:07.504Z,7.40
2018-10-06T02:21:35.965Z,7.50
2018-10-06T02:24:04.536Z,7.50
2018-10-06T02:26:33.016Z,7.60
2018-10-06T02:29:01.535Z,7.50
2018-10-06T02:31:30.053Z,7.40
2018-10-06T02:33:58.551Z,7.40
2018-10-06T02:36:27.006Z,7.40
2018-10-06T02:38:55.563Z,7.40
2018-10-06T02:41:24.033Z,7.40
2018-10-06T02:43:52.563Z,7.40
2018-10-06T02:46:21.034Z,7.40
2018-10-06T02:48:49.597Z,7.40
2018-10-06T02:51:18.110Z,7.50
2018-10-06T02:53:46.642Z,7.40
2018-10-06T02:56:15.149Z,7.50
2018-10-06T02:58:43.687Z,7.50
2018-10-06T03:01:12.195Z,7.40
2018-10-06T03:03:40.744Z,7.30
2018-10-06T03:06:09.222Z,7.30
2018-10-06T03:08:37.771Z,7.30
2018-10-06T03:11:06.356Z,7.30
2018-10-06T03:13:34.910Z,7.30
2018-10-06T03:16:03.469Z,7.20
2018-10-06T03:18:31.910Z,7.20
2018-10-06T03:21:00.496Z,7.30
2018-10-06T03:23:28.968Z,7.40
2018-10-06T03:25:57.503Z,7.40
2018-10-06T03:28:26.086Z,7.40
2018-10-06T03:30:54.809Z,7.40
2018-10-06T03:33:23.450Z,7.40
2018-10-06T03:35:52.073Z,7.30
2018-10-06T03:38:20.502Z,7.30
2018-10-06T03:40:49.089Z,7.30
2018-10-06T03:43:17.582Z,7.30
2018-10-06T03:45:46.065Z,7.30
2018-10-06T03:48:14.561Z,7.30
2018-10-06T03:50:43.029Z,7.40
2018-10-06T03:53:11.603Z,7.40
2018-10-06T03:55:40.054Z,7.40
2018-10-06T03:58:08.616Z,7.40
2018-10-06T04:00:37.216Z,7.40
2018-10-06T04:03:05.706Z,7.30
2018-10-06T04:05:34.173Z,7.40
2018-10-06T04:08:02.704Z,7.40
2018-10-06T04:10:31.259Z,7.30
2018-10-06T04:12:59.787Z,7.30
2018-10-06T04:15:28.256Z,7.20
2018-10-06T04:17:56.733Z,7.20
2018-10-06T04:20:25.210Z,7.30
2018-10-06T04:22:53.795Z,7.30
2018-10-06T04:25:22.447Z,7.30
2018-10-06T04:27:50.959Z,7.30
2018-10-06T04:30:19.539Z,7.30
2018-10-06T04:32:48.023Z,7.20
2018-10-06T04:35:16.495Z,7.20
2018-10-06T04:37:45.276Z,7.30
2018-10-06T04:40:13.733Z,7.30
2018-10-06T04:42:42.183Z,7.30
2018-10-06T04:45:10.713Z,7.30
2018-10-06T04:47:39.240Z,7.30
2018-10-06T04:50:07.820Z,7.30
2018-10-06T04:52:36.302Z,7.20
2018-10-06T04:55:04.979Z,7.00
2018-10-06T04:57:33.506Z,7.00
2018-10-06T05:00:02.086Z,7.00
2018-10-06T05:02:31.022Z,7.00
2018-10-06T05:04:59.563Z,7.00
2018-10-06T05:07:28.282Z,6.90
2018-10-06T05:10:03.451Z,6.90
2018-10-06T05:12:32.177Z,6.90
2018-10-06T05:15:00.727Z,6.90
2018-10-06T05:17:29.308Z,7.00
2018-10-06T05:19:57.800Z,7.00
2018-10-06T05:22:26.359Z,7.10
2018-10-06T05:24:54.908Z,7.10
2018-10-06T05:27:23.601Z,7.00
2018-10-06T05:29:52.097Z,7.00
2018-10-06T05:32:20.702Z,7.00
2018-10-06T05:34:49.232Z,7.00
2018-10-06T05:37:17.943Z,7.00
2018-10-06T05:39:46.462Z,7.10
2018-10-06T05:42:15.222Z,7.20
2018-10-06T05:44:43.767Z,7.30
2018-10-06T05:47:12.287Z,7.30
2018-10-06T05:49:40.798Z,7.40
2018-10-06T05:52:09.379Z,7.70
2018-10-06T05:54:37.897Z,8.00
2018-10-06T05:57:06.455Z,8.20
2018-10-06T05:59:35.083Z,8.40
2018-10-06T06:02:03.629Z,8.50
2018-10-06T06:04:32.341Z,8.60
2018-10-06T06:07:00.896Z,8.70
2018-10-06T06:09:29.378Z,8.90
2018-10-06T06:11:57.883Z,9.10
2018-10-06T06:14:26.334Z,9.20
2018-10-06T06:16:54.845Z,9.40
2018-10-06T06:19:23.372Z,9.50
2018-10-06T06:21:51.961Z,9.60
2018-10-06T06:24:21.078Z,9.50
2018-10-06T06:26:49.661Z,9.50
2018-10-06T06:29:18.204Z,9.70
2018-10-06T06:31:46.735Z,9.90
2018-10-06T06:34:15.764Z,10.00
2018-10-06T06:36:44.366Z,10.10
2018-10-06T06:39:12.916Z,10.10
2018-10-06T06:41:41.468Z,10.30
2018-10-06T06:44:10.140Z,10.60
2018-10-06T06:46:38.836Z,10.70
2018-10-06T06:49:07.415Z,11.00
2018-10-06T06:51:36.343Z,11.10
2018-10-06T06:54:04.891Z,11.40
2018-10-06T06:56:33.507Z,11.90
2018-10-06T06:59:02.046Z,12.20
2018-10-06T07:01:30.705Z,12.60
2018-10-06T07:03:59.436Z,13.00
2018-10-06T07:06:28.013Z,13.10
2018-10-06T07:08:56.705Z,13.50
2018-10-06T07:11:25.363Z,13.80
2018-10-06T07:13:53.985Z,14.00
2018-10-06T07:16:22.569Z,13.60
2018-10-06T07:18:51.155Z,13.50
2018-10-06T07:21:19.858Z,13.00
2018-10-06T07:23:48.415Z,12.60
2018-10-06T07:26:17.087Z,12.20
2018-10-06T07:28:45.656Z,12.20
2018-10-06T07:31:14.320Z,12.40
2018-10-06T07:33:42.884Z,12.50
2018-10-06T07:36:11.638Z,12.70
2018-10-06T07:38:40.256Z,12.60
2018-10-06T07:41:08.924Z,13.10
2018-10-06T07:43:37.752Z,13.50
2018-10-06T07:46:06.496Z,14.20
2018-10-06T07:48:35.198Z,15.10
2018-10-06T07:51:03.765Z,15.90
2018-10-06T07:53:32.535Z,15.70
2018-10-06T07:56:01.301Z,15.80
2018-10-06T07:58:30.048Z,16.10
2018-10-06T08:00:58.659Z,16.00
2018-10-06T08:03:27.280Z,16.00
2018-10-06T08:05:55.971Z,15.70
2018-10-06T08:08:24.617Z,15.20
2018-10-06T08:10:53.228Z,15.40
2018-10-06T08:13:21.830Z,15.30
2018-10-06T08:15:50.396Z,15.20
2018-10-06T08:18:19.011Z,15.20
2018-10-06T08:20:47.832Z,15.40
2018-10-06T08:23:16.602Z,15.00
2018-10-06T08:25:45.238Z,15.00
2018-10-06T08:28:14.066Z,15.10
2018-10-06T08:30:42.903Z,15.30
2018-10-06T08:33:12.295Z,15.50
2018-10-06T08:35:41.034Z,15.50
2018-10-06T08:38:09.779Z,15.50
2018-10-06T08:40:38.566Z,15.60
2018-10-06T08:43:07.628Z,16.10
2018-10-06T08:45:36.292Z,16.50
2018-10-06T08:48:05.004Z,16.90
2018-10-06T08:50:33.682Z,17.70
2018-10-06T08:53:02.329Z,18.20
2018-10-06T08:55:31.139Z,18.60
2018-10-06T08:57:59.784Z,18.90
2018-10-06T09:00:28.489Z,19.20
2018-10-06T09:02:57.364Z,19.50
2018-10-06T09:05:25.956Z,19.00
2018-10-06T09:07:54.689Z,19.00
2018-10-06T09:10:23.324Z,19.20
2018-10-06T09:12:51.891Z,19.50
2018-10-06T09:15:20.668Z,18.80
2018-10-06T09:17:49.479Z,18.80
2018-10-06T09:20:18.226Z,19.40
2018-10-06T09:22:47.166Z,19.50
2018-10-06T09:25:15.753Z,20.10
2018-10-06T09:27:44.451Z,20.10
2018-10-06T09:30:13.168Z,20.20
2018-10-06T09:32:41.825Z,20.60
2018-10-06T09:35:10.504Z,21.10
2018-10-06T09:37:39.137Z,21.50
2018-10-06T09:40:07.959Z,21.40
2018-10-06T09:42:37.857Z,20.60
2018-10-06T09:45:06.549Z,21.00
2018-10-06T09:47:36.658Z,21.40
2018-10-06T09:50:05.628Z,21.10
2018-10-06T09:52:34.411Z,21.30
2018-10-06T09:55:03.024Z,21.60
2018-10-06T09:57:31.662Z,22.30
2018-10-06T10:00:00.576Z,22.10
2018-10-06T10:02:34.385Z,22.00
2018-10-06T10:05:08.237Z,23.30
2018-10-06T10:07:36.898Z,23.80
2018-10-06T10:10:06.140Z,23.90
2018-10-06T10:12:35.189Z,24.30
2018-10-06T10:15:04.077Z,24.80
2018-10-06T10:17:32.771Z,24.80
2018-10-06T10:20:01.290Z,23.20
2018-10-06T10:22:30.199Z,23.10
2018-10-06T10:24:58.604Z,23.90
2018-10-06T10:27:27.211Z,24.00
2018-10-06T10:29:55.824Z,21.70
2018-10-06T10:32:24.483Z,22.60
2018-10-06T10:34:53.033Z,23.30
2018-10-06T10:37:22.637Z,24.20
2018-10-06T10:39:51.283Z,25.00
2018-10-06T10:42:19.975Z,25.80
2018-10-06T10:44:49.062Z,25.50
2018-10-06T10:47:17.833Z,25.60
2018-10-06T10:49:46.683Z,25.40
2018-10-06T10:52:15.566Z,23.90
2018-10-06T10:54:44.534Z,24.60
2018-10-06T10:57:13.167Z,24.90
2018-10-06T10:59:41.790Z,24.40
2018-10-06T11:02:10.356Z,23.60
2018-10-06T11:04:39.118Z,24.40
2018-10-06T11:07:07.939Z,25.40
2018-10-06T11:09:36.504Z,24.20
2018-10-06T11:12:05.236Z,24.70
2018-10-06T11:14:34.782Z,24.90
2018-10-06T11:17:03.657Z,24.80
2018-10-06T11:19:32.931Z,24.90
2018-10-06T11:22:01.607Z,25.00
2018-10-06T11:24:30.222Z,24.50
2018-10-06T11:26:58.925Z,23.30
2018-10-06T11:29:27.851Z,23.50
2018-10-06T11:31:56.725Z,23.90
2018-10-06T11:34:25.400Z,23.80
2018-10-06T11:36:54.118Z,24.30
2018-10-06T11:39:22.739Z,25.00
2018-10-06T11:41:51.402Z,25.40
2018-10-06T11:44:20.280Z,25.40
2018-10-06T11:46:48.872Z,25.40
2018-10-06T11:49:17.446Z,26.40
2018-10-06T11:51:46.115Z,27.70
2018-10-06T11:54:14.811Z,26.30
2018-10-06T11:56:43.568Z,25.00
2018-10-06T11:59:12.292Z,25.50
2018-10-06T12:01:40.827Z,27.10
2018-10-06T12:04:09.507Z,24.60
2018-10-06T12:06:38.151Z,25.30
2018-10-06T12:09:08.047Z,25.80
2018-10-06T12:11:37.175Z,25.40
2018-10-06T12:14:05.876Z,26.00
2018-10-06T12:16:34.943Z,26.40
2018-10-06T12:19:03.984Z,26.60
2018-10-06T12:21:32.846Z,27.10
2018-10-06T12:24:01.886Z,26.30
2018-10-06T12:26:31.368Z,26.70
2018-10-06T12:29:00.293Z,25.80
2018-10-06T12:31:28.984Z,24.80
2018-10-06T12:33:57.771Z,24.10
2018-10-06T12:36:26.481Z,24.00
2018-10-06T12:38:55.073Z,23.40
2018-10-06T12:41:23.702Z,23.00
2018-10-06T12:43:52.335Z,23.20
2018-10-06T12:46:20.933Z,22.90
2018-10-06T12:48:49.524Z,22.60
2018-10-06T12:51:18.314Z,22.60
2018-10-06T12:53:46.991Z,22.80
2018-10-06T12:56:15.641Z,22.50
2018-10-06T12:58:44.359Z,22.90
2018-10-06T13:01:12.914Z,22.70
2018-10-06T13:03:41.645Z,23.00
2018-10-06T13:06:10.514Z,22.40
2018-10-06T13:08:39.068Z,22.50
2018-10-06T13:11:07.972Z,22.60
2018-10-06T13:13:36.558Z,22.60
2018-10-06T13:16:05.129Z,22.60
2018-10-06T13:18:33.670Z,22.80
2018-10-06T13:21:02.163Z,23.00
2018-10-06T13:23:30.732Z,23.20
2018-10-06T13:25:59.269Z,23.20
2018-10-06T13:28:27.758Z,23.20
2018-10-06T13:30:56.406Z,23.30
2018-10-06T13:33:25.009Z,23.10
2018-10-06T13:35:53.606Z,22.60
2018-10-06T13:38:22.124Z,22.60
2018-10-06T13:40:50.984Z,22.80
2018-10-06T13:43:19.774Z,22.50
2018-10-06T13:45:48.924Z,22.70
2018-10-06T13:48:18.975Z,22.80
2018-10-06T13:50:47.829Z,22.60
2018-10-06T13:53:16.490Z,22.20
2018-10-06T13:55:45.099Z,21.80
2018-10-06T13:58:13.835Z,21.60
2018-10-06T14:00:42.599Z,21.70
2018-10-06T14:03:11.183Z,21.60
2018-10-06T14:05:40.051Z,21.70
2018-10-06T14:08:08.859Z,21.70
2018-10-06T14:10:37.597Z,21.70
2018-10-06T14:13:06.664Z,21.80
2018-10-06T14:15:35.509Z,21.80
2018-10-06T14:18:04.258Z,21.90
2018-10-06T14:20:33.011Z,21.70
2018-10-06T14:23:01.540Z,21.50
2018-10-06T14:25:32.163Z,21.60
2018-10-06T14:28:00.731Z,21.70
2018-10-06T14:30:29.303Z,21.80
2018-10-06T14:32:57.870Z,21.50
2018-10-06T14:35:26.442Z,21.50
2018-10-06T14:37:55.186Z,21.50
2018-10-06T14:40:24.268Z,21.40
2018-10-06T14:42:53.095Z,21.40
2018-10-06T14:45:21.781Z,21.20
2018-10-06T14:47:50.635Z,21.10
2018-10-06T14:50:19.402Z,21.00
2018-10-06T14:52:48.058Z,21.10
2018-10-06T14:55:16.642Z,21.10
2018-10-06T14:57:45.229Z,21.20
2018-10-06T15:00:13.809Z,21.30
2018-10-06T15:02:42.460Z,21.60
2018-10-06T15:05:11.173Z,22.80
2018-10-06T15:07:39.725Z,23.70
2018-10-06T15:10:08.343Z,24.90
2018-10-06T15:12:36.941Z,23.80
2018-10-06T15:15:05.873Z,22.50
2018-10-06T15:17:34.444Z,21.90
2018-10-06T15:20:03.074Z,21.60
2018-10-06T15:22:31.687Z,21.40
2018-10-06T15:25:00.356Z,21.10
2018-10-06T15:27:28.954Z,21.10
2018-10-06T15:29:57.956Z,21.10
2018-10-06T15:32:26.506Z,21.00
2018-10-06T15:34:55.218Z,21.00
2018-10-06T15:37:23.833Z,21.00
2018-10-06T15:39:52.456Z,21.10
2018-10-06T15:42:21.194Z,21.10
2018-10-06T15:44:49.789Z,21.10
2018-10-06T15:47:18.345Z,21.30
2018-10-06T15:49:47.072Z,21.20
2018-10-06T15:52:15.840Z,21.20
2018-10-06T15:54:44.481Z,21.00
2018-10-06T15:57:13.114Z,21.10
2018-10-06T15:59:41.743Z,21.00
2018-10-06T16:02:10.317Z,21.00
2018-10-06T16:04:38.981Z,20.80
2018-10-06T16:07:08.090Z,20.70
2018-10-06T16:09:36.768Z,20.60
2018-10-06T16:12:05.603Z,20.40
2018-10-06T16:14:34.222Z,20.30
2018-10-06T16:17:03.659Z,20.20
2018-10-06T16:19:35.861Z,20.00
2018-10-06T16:22:06.423Z,19.90
2018-10-06T16:24:35.432Z,19.80
2018-10-06T16:27:04.795Z,19.80
2018-10-06T16:29:34.696Z,19.70
2018-10-06T16:32:03.379Z,19.50
2018-10-06T16:34:32.956Z,19.20
2018-10-06T16:37:01.637Z,19.10
2018-10-06T16:39:31.641Z,18.90
2018-10-06T16:42:00.474Z,18.80
2018-10-06T16:44:30.454Z,18.60
2018-10-06T16:49:38.763Z,18.30
2018-10-06T16:52:09.354Z,18.20
2018-10-06T16:54:38.648Z,18.10
2018-10-06T16:57:07.658Z,18.00
2018-10-06T16:59:36.515Z,18.00
2018-10-06T17:02:05.652Z,17.90
2018-10-06T17:04:34.843Z,17.70
2018-10-06T17:07:03.884Z,17.60
2018-10-06T17:09:33.351Z,17.60
2018-10-06T17:12:02.789Z,17.40
2018-10-06T17:14:31.600Z,17.30
2018-10-06T17:17:01.116Z,17.20
2018-10-06T17:19:30.259Z,17.10
2018-10-06T17:22:01.826Z,16.90
2018-10-06T17:24:31.977Z,16.90
2018-10-06T17:27:01.237Z,16.80
2018-10-06T17:29:31.429Z,16.70
2018-10-06T17:32:03.482Z,16.60
2018-10-06T17:34:33.897Z,16.60
2018-10-06T17:37:02.981Z,16.50
2018-10-06T17:39:33.179Z,16.40
2018-10-06T17:42:01.924Z,16.30
2018-10-06T17:44:30.820Z,16.20
2018-10-06T17:47:01.493Z,16.20
2018-10-06T17:49:30.165Z,16.20
2018-10-06T17:52:03.364Z,16.10
2018-10-06T17:54:36.470Z,16.00
2018-10-06T17:57:07.408Z,15.90
2018-10-06T17:59:36.056Z,15.90
2018-10-06T18:02:05.014Z,15.90
2018-10-06T18:04:33.840Z,15.90
2018-10-06T18:07:03.561Z,15.80
2018-10-06T18:09:32.949Z,15.70
2018-10-06T18:12:03.927Z,15.60
2018-10-06T18:14:36.848Z,15.50
2018-10-06T18:17:08.160Z,15.50
2018-10-06T18:19:37.791Z,15.50
2018-10-06T18:22:09.307Z,15.40
2018-10-06T18:24:39.035Z,15.40
2018-10-06T18:27:08.805Z,15.40
2018-10-06T18:29:38.007Z,15.40
2018-10-06T18:32:09.089Z,15.30
2018-10-06T18:34:40.792Z,15.20
2018-10-06T18:37:15.503Z,15.10
2018-10-06T18:39:45.047Z,15.10
2018-10-06T18:42:15.319Z,15.00
2018-10-06T18:44:45.322Z,15.00
2018-10-06T18:47:14.619Z,14.90
2018-10-06T18:49:44.898Z,14.90
2018-10-06T18:52:14.497Z,14.90
2018-10-06T18:54:44.100Z,14.90
2018-10-06T18:57:13.832Z,14.80
2018-10-06T18:59:43.556Z,14.80
2018-10-06T19:02:12.753Z,14.80
2018-10-06T19:04:41.949Z,14.80
2018-10-06T19:07:11.453Z,14.80
2018-10-06T19:09:40.773Z,14.80
2018-10-06T19:12:10.320Z,14.80
2018-10-06T19:14:39.703Z,14.80
2018-10-06T19:17:09.956Z,14.80
2018-10-06T19:19:39.616Z,14.90
2018-10-06T19:22:09.127Z,14.90
2018-10-06T19:24:38.550Z,14.90
2018-10-06T19:27:07.769Z,14.90
2018-10-06T19:29:37.196Z,15.10
2018-10-06T19:32:07.053Z,15.00
2018-10-06T19:34:37.391Z,15.20
2018-10-06T19:37:07.937Z,15.30
2018-10-06T19:39:37.867Z,15.30
2018-10-06T19:42:07.711Z,15.30
2018-10-06T19:44:37.738Z,15.00
2018-10-06T19:47:07.776Z,14.80
2018-10-06T19:49:39.957Z,14.70
2018-10-06T19:52:09.160Z,14.70
2018-10-06T19:54:39.317Z,14.70
2018-10-06T19:57:08.823Z,14.80
2018-10-06T19:59:38.362Z,14.70
2018-10-06T20:02:08.290Z,14.90
2018-10-06T20:04:38.310Z,14.90
2018-10-06T20:07:09.977Z,14.80
2018-10-06T20:09:40.102Z,14.70
2018-10-06T20:12:11.027Z,14.60
2018-10-06T20:14:41.379Z,14.50
2018-10-06T20:17:11.065Z,14.50
2018-10-06T20:19:40.130Z,14.70
2018-10-06T20:22:12.988Z,14.90
2018-10-06T20:24:42.226Z,14.90
2018-10-06T20:27:11.194Z,14.90
2018-10-06T20:29:40.432Z,15.00
2018-10-06T20:32:09.387Z,14.90
2018-10-06T20:34:38.655Z,14.80
2018-10-06T20:37:07.638Z,14.80
2018-10-06T20:39:37.128Z,14.60
2018-10-06T20:42:06.113Z,14.50
2018-10-06T20:44:34.953Z,14.60
2018-10-06T20:47:03.841Z,14.60
2018-10-06T20:49:32.731Z,14.50
2018-10-06T20:52:01.607Z,14.40
2018-10-06T20:54:30.505Z,14.40
2018-10-06T20:56:59.632Z,14.50
2018-10-06T20:59:28.374Z,14.50
2018-10-06T21:01:57.319Z,14.40
2018-10-06T21:04:26.184Z,14.50
2018-10-06T21:06:54.761Z,14.50
2018-10-06T21:09:23.340Z,14.70
2018-10-06T21:11:52.026Z,14.60
2018-10-06T21:14:20.622Z,14.40
2018-10-06T21:16:49.228Z,14.30
2018-10-06T21:19:17.902Z,14.30
2018-10-06T21:21:46.505Z,14.30
2018-10-06T21:24:15.110Z,14.50
2018-10-06T21:26:43.614Z,14.60
2018-10-06T21:29:12.232Z,14.70
2018-10-06T21:31:40.701Z,14.80
2018-10-06T21:34:09.376Z,14.90
2018-10-06T21:36:38.016Z,14.80
2018-10-06T21:39:08.442Z,14.80
2018-10-06T21:41:37.527Z,14.80
2018-10-06T21:44:06.267Z,14.80
2018-10-06T21:46:34.869Z,14.70
2018-10-06T21:49:03.531Z,14.60
2018-10-06T21:51:32.161Z,14.50
2018-10-06T21:54:00.704Z,14.40
2018-10-06T21:56:29.245Z,14.20
2018-10-06T21:58:57.783Z,14.20
2018-10-06T22:01:26.661Z,14.10
2018-10-06T22:03:55.202Z,14.20
2018-10-06T22:06:23.691Z,14.10
2018-10-06T22:08:53.916Z,14.00
2018-10-06T22:11:22.415Z,14.10
2018-10-06T22:13:51.078Z,14.00
2018-10-06T22:16:19.676Z,14.00
2018-10-06T22:18:48.147Z,14.00
2018-10-06T22:21:16.661Z,14.00
2018-10-06T22:23:45.152Z,13.90
2018-10-06T22:26:13.655Z,13.90
2018-10-06T22:28:42.141Z,13.90
2018-10-06T22:31:10.731Z,14.00
2018-10-06T22:33:39.469Z,14.00
2018-10-06T22:36:07.985Z,14.20
2018-10-06T22:38:36.661Z,14.30
2018-10-06T22:41:05.250Z,14.40
2018-10-06T22:43:33.814Z,14.40
2018-10-06T22:46:02.323Z,14.40
2018-10-06T22:48:30.847Z,14.30
2018-10-06T22:50:59.419Z,14.40
2018-10-06T22:53:28.242Z,14.20
2018-10-06T22:55:56.853Z,14.10
2018-10-06T22:58:25.482Z,14.00
2018-10-06T23:00:54.060Z,14.00
2018-10-06T23:03:22.578Z,14.10
2018-10-06T23:05:51.099Z,14.10
2018-10-06T23:08:19.616Z,14.20
2018-10-06T23:10:48.101Z,14.20
2018-10-06T23:13:16.624Z,14.10
2018-10-06T23:15:45.181Z,14.20
2018-10-06T23:18:13.760Z,14.00
2018-10-06T23:20:42.374Z,13.90
2018-10-06T23:23:10.829Z,13.90
2018-10-06T23:25:39.382Z,13.90
2018-10-06T23:28:07.996Z,14.00
2018-10-06T23:30:36.447Z,13.90
2018-10-06T23:33:05.159Z,13.80
2018-10-06T23:35:33.677Z,13.80
2018-10-06T23:38:02.137Z,13.90
2018-10-06T23:40:30.989Z,14.00
2018-10-06T23:42:59.466Z,13.90
2018-10-06T23:45:28.012Z,13.90
2018-10-06T23:47:56.460Z,14.00
2018-10-06T23:50:25.049Z,13.90
2018-10-06T23:52:53.753Z,14.00
2018-10-06T23:55:22.218Z,13.90
2018-10-06T23:57:50.904Z,14.10
